sensor_id;sensor_type;location;lat;lon;timestamp;temperature;humidity
12164;DHT22;6145;50.192;10.064;2023-05-10T00:00:03;17.70;81.00
12164;DHT22;6145;50.192;10.064;2023-05-10T00:02:30;17.60;81.60
12164;DHT22;6145;50.192;10.064;2023-05-10T00:04:59;17.70;82.60
12164;DHT22;6145;50.192;10.064;2023-05-10T00:07:27;17.50;82.80
12164;DHT22;6145;50.192;10.064;2023-05-10T00:09:54;17.40;83.60
12164;DHT22;6145;50.192;10.064;2023-05-10T00:12:21;17.40;84.00
12164;DHT22;6145;50.192;10.064;2023-05-10T00:14:48;17.20;83.90
12164;DHT22;6145;50.192;10.064;2023-05-10T00:17:15;17.30;83.10
12164;DHT22;6145;50.192;10.064;2023-05-10T00:19:42;17.50;83.80
12164;DHT22;6145;50.192;10.064;2023-05-10T00:22:09;17.80;83.60
12164;DHT22;6145;50.192;10.064;2023-05-10T00:24:37;17.50;83.40
12164;DHT22;6145;50.192;10.064;2023-05-10T00:27:04;17.40;83.60
12164;DHT22;6145;50.192;10.064;2023-05-10T00:29:31;17.40;83.90
12164;DHT22;6145;50.192;10.064;2023-05-10T00:31:59;17.40;84.30
12164;DHT22;6145;50.192;10.064;2023-05-10T00:34:25;17.50;84.00
12164;DHT22;6145;50.192;10.064;2023-05-10T00:36:53;17.50;84.30
12164;DHT22;6145;50.192;10.064;2023-05-10T00:39:19;17.40;84.80
12164;DHT22;6145;50.192;10.064;2023-05-10T00:41:48;17.40;85.00
12164;DHT22;6145;50.192;10.064;2023-05-10T00:44:14;17.40;85.20
12164;DHT22;6145;50.192;10.064;2023-05-10T00:46:41;17.20;85.40
12164;DHT22;6145;50.192;10.064;2023-05-10T00:49:08;17.30;86.10
12164;DHT22;6145;50.192;10.064;2023-05-10T00:51:35;17.20;86.30
12164;DHT22;6145;50.192;10.064;2023-05-10T00:54:02;17.20;86.70
12164;DHT22;6145;50.192;10.064;2023-05-10T00:56:31;17.20;86.90
12164;DHT22;6145;50.192;10.064;2023-05-10T00:58:59;17.10;86.50
12164;DHT22;6145;50.192;10.064;2023-05-10T01:01:26;17.10;86.90
12164;DHT22;6145;50.192;10.064;2023-05-10T01:03:54;17.10;86.60
12164;DHT22;6145;50.192;10.064;2023-05-10T01:06:22;17.10;87.00
12164;DHT22;6145;50.192;10.064;2023-05-10T01:08:49;17.10;87.10
12164;DHT22;6145;50.192;10.064;2023-05-10T01:11:16;17.10;87.40
12164;DHT22;6145;50.192;10.064;2023-05-10T01:13:46;17.00;87.50
12164;DHT22;6145;50.192;10.064;2023-05-10T01:16:15;17.00;87.90
12164;DHT22;6145;50.192;10.064;2023-05-10T01:18:43;17.00;88.50
12164;DHT22;6145;50.192;10.064;2023-05-10T01:21:19;16.90;88.50
12164;DHT22;6145;50.192;10.064;2023-05-10T01:27:33;17.00;88.20
12164;DHT22;6145;50.192;10.064;2023-05-10T01:30:32;16.90;87.70
12164;DHT22;6145;50.192;10.064;2023-05-10T01:33:08;17.00;87.60
12164;DHT22;6145;50.192;10.064;2023-05-10T01:35:41;17.00;87.30
12164;DHT22;6145;50.192;10.064;2023-05-10T01:38:17;17.10;87.10
12164;DHT22;6145;50.192;10.064;2023-05-10T01:40:52;17.10;87.40
12164;DHT22;6145;50.192;10.064;2023-05-10T01:43:28;17.00;87.30
12164;DHT22;6145;50.192;10.064;2023-05-10T01:46:02;17.00;87.00
12164;DHT22;6145;50.192;10.064;2023-05-10T01:48:38;17.00;87.30
12164;DHT22;6145;50.192;10.064;2023-05-10T01:51:09;16.90;87.20
12164;DHT22;6145;50.192;10.064;2023-05-10T01:53:38;17.00;87.80
12164;DHT22;6145;50.192;10.064;2023-05-10T01:56:07;16.80;87.70
12164;DHT22;6145;50.192;10.064;2023-05-10T01:58:36;16.90;88.00
12164;DHT22;6145;50.192;10.064;2023-05-10T02:01:04;16.80;88.20
12164;DHT22;6145;50.192;10.064;2023-05-10T02:03:37;16.80;88.30
12164;DHT22;6145;50.192;10.064;2023-05-10T02:06:05;16.80;88.40
12164;DHT22;6145;50.192;10.064;2023-05-10T02:08:36;16.80;88.70
12164;DHT22;6145;50.192;10.064;2023-05-10T02:11:05;17.20;89.20
12164;DHT22;6145;50.192;10.064;2023-05-10T02:13:32;16.70;89.00
12164;DHT22;6145;50.192;10.064;2023-05-10T02:16:01;16.70;89.40
12164;DHT22;6145;50.192;10.064;2023-05-10T02:18:30;16.70;89.90
12164;DHT22;6145;50.192;10.064;2023-05-10T02:21:00;16.60;89.30
12164;DHT22;6145;50.192;10.064;2023-05-10T02:23:30;16.60;88.90
12164;DHT22;6145;50.192;10.064;2023-05-10T02:25:58;16.60;88.90
12164;DHT22;6145;50.192;10.064;2023-05-10T02:28:28;16.60;88.50
12164;DHT22;6145;50.192;10.064;2023-05-10T02:30:56;16.60;88.20
12164;DHT22;6145;50.192;10.064;2023-05-10T02:33:25;16.60;88.10
12164;DHT22;6145;50.192;10.064;2023-05-10T02:35:52;16.70;87.80
12164;DHT22;6145;50.192;10.064;2023-05-10T02:38:22;16.60;87.30
12164;DHT22;6145;50.192;10.064;2023-05-10T02:40:49;16.70;87.00
12164;DHT22;6145;50.192;10.064;2023-05-10T02:43:18;16.60;86.80
12164;DHT22;6145;50.192;10.064;2023-05-10T02:45:47;16.60;86.50
12164;DHT22;6145;50.192;10.064;2023-05-10T02:48:15;16.60;86.10
12164;DHT22;6145;50.192;10.064;2023-05-10T02:50:44;16.70;86.00
12164;DHT22;6145;50.192;10.064;2023-05-10T02:53:15;16.60;85.60
12164;DHT22;6145;50.192;10.064;2023-05-10T02:55:50;16.60;85.50
12164;DHT22;6145;50.192;10.064;2023-05-10T02:58:18;16.50;85.80
12164;DHT22;6145;50.192;10.064;2023-05-10T03:00:46;16.60;85.70
12164;DHT22;6145;50.192;10.064;2023-05-10T03:03:13;16.40;85.60
12164;DHT22;6145;50.192;10.064;2023-05-10T03:05:40;16.50;85.70
12164;DHT22;6145;50.192;10.064;2023-05-10T03:08:07;16.30;85.70
12164;DHT22;6145;50.192;10.064;2023-05-10T03:10:37;16.30;85.70
12164;DHT22;6145;50.192;10.064;2023-05-10T03:13:16;16.20;85.70
12164;DHT22;6145;50.192;10.064;2023-05-10T03:15:53;16.20;85.70
12164;DHT22;6145;50.192;10.064;2023-05-10T03:18:23;16.20;85.90
12164;DHT22;6145;50.192;10.064;2023-05-10T03:20:58;16.10;85.90
12164;DHT22;6145;50.192;10.064;2023-05-10T03:23:29;16.00;86.10
12164;DHT22;6145;50.192;10.064;2023-05-10T03:25:56;16.00;86.00
12164;DHT22;6145;50.192;10.064;2023-05-10T03:28:26;16.00;86.00
12164;DHT22;6145;50.192;10.064;2023-05-10T03:30:53;16.00;86.30
12164;DHT22;6145;50.192;10.064;2023-05-10T03:33:20;16.10;86.40
12164;DHT22;6145;50.192;10.064;2023-05-10T03:35:47;16.00;86.70
12164;DHT22;6145;50.192;10.064;2023-05-10T03:38:14;16.00;86.70
12164;DHT22;6145;50.192;10.064;2023-05-10T03:40:41;16.00;86.90
12164;DHT22;6145;50.192;10.064;2023-05-10T03:43:08;16.00;87.10
12164;DHT22;6145;50.192;10.064;2023-05-10T03:45:36;16.00;86.60
12164;DHT22;6145;50.192;10.064;2023-05-10T03:48:04;16.00;86.70
12164;DHT22;6145;50.192;10.064;2023-05-10T03:50:31;15.90;86.80
12164;DHT22;6145;50.192;10.064;2023-05-10T03:52:58;15.90;87.00
12164;DHT22;6145;50.192;10.064;2023-05-10T03:55:25;15.90;87.20
12164;DHT22;6145;50.192;10.064;2023-05-10T03:57:52;15.80;87.20
12164;DHT22;6145;50.192;10.064;2023-05-10T04:00:19;15.80;87.70
12164;DHT22;6145;50.192;10.064;2023-05-10T04:02:51;15.80;87.60
12164;DHT22;6145;50.192;10.064;2023-05-10T04:05:18;15.80;87.70
12164;DHT22;6145;50.192;10.064;2023-05-10T04:07:45;15.80;87.50
12164;DHT22;6145;50.192;10.064;2023-05-10T04:10:14;15.90;87.90
12164;DHT22;6145;50.192;10.064;2023-05-10T04:12:41;15.70;88.00
12164;DHT22;6145;50.192;10.064;2023-05-10T04:15:09;15.60;88.20
12164;DHT22;6145;50.192;10.064;2023-05-10T04:17:36;15.60;88.40
12164;DHT22;6145;50.192;10.064;2023-05-10T04:20:05;15.70;88.20
12164;DHT22;6145;50.192;10.064;2023-05-10T04:22:35;15.70;88.30
12164;DHT22;6145;50.192;10.064;2023-05-10T04:25:02;15.70;88.40
12164;DHT22;6145;50.192;10.064;2023-05-10T04:27:31;15.70;88.30
12164;DHT22;6145;50.192;10.064;2023-05-10T04:29:58;15.70;88.00
12164;DHT22;6145;50.192;10.064;2023-05-10T04:32:25;15.70;88.70
12164;DHT22;6145;50.192;10.064;2023-05-10T04:34:52;15.70;88.00
12164;DHT22;6145;50.192;10.064;2023-05-10T04:37:23;15.70;87.90
12164;DHT22;6145;50.192;10.064;2023-05-10T04:39:49;15.70;87.80
12164;DHT22;6145;50.192;10.064;2023-05-10T04:42:16;15.80;88.00
12164;DHT22;6145;50.192;10.064;2023-05-10T04:44:43;15.70;87.80
12164;DHT22;6145;50.192;10.064;2023-05-10T04:47:23;15.70;87.90
12164;DHT22;6145;50.192;10.064;2023-05-10T04:49:50;15.70;88.00
12164;DHT22;6145;50.192;10.064;2023-05-10T04:52:19;15.60;88.60
12164;DHT22;6145;50.192;10.064;2023-05-10T04:54:47;15.70;87.90
12164;DHT22;6145;50.192;10.064;2023-05-10T04:57:14;15.70;87.60
12164;DHT22;6145;50.192;10.064;2023-05-10T04:59:40;15.60;87.60
12164;DHT22;6145;50.192;10.064;2023-05-10T05:02:09;16.20;88.50
12164;DHT22;6145;50.192;10.064;2023-05-10T05:04:35;15.80;88.20
12164;DHT22;6145;50.192;10.064;2023-05-10T05:07:02;15.50;88.40
12164;DHT22;6145;50.192;10.064;2023-05-10T05:09:31;15.50;88.50
12164;DHT22;6145;50.192;10.064;2023-05-10T05:11:58;15.50;88.60
12164;DHT22;6145;50.192;10.064;2023-05-10T05:14:44;15.50;88.60
12164;DHT22;6145;50.192;10.064;2023-05-10T05:17:11;15.50;89.00
12164;DHT22;6145;50.192;10.064;2023-05-10T05:19:37;15.50;89.00
12164;DHT22;6145;50.192;10.064;2023-05-10T05:22:06;15.50;89.00
12164;DHT22;6145;50.192;10.064;2023-05-10T05:24:36;15.50;89.30
12164;DHT22;6145;50.192;10.064;2023-05-10T05:27:03;15.50;89.20
12164;DHT22;6145;50.192;10.064;2023-05-10T05:29:31;15.50;89.20
12164;DHT22;6145;50.192;10.064;2023-05-10T05:32:09;15.60;89.30
12164;DHT22;6145;50.192;10.064;2023-05-10T05:34:45;15.60;89.30
12164;DHT22;6145;50.192;10.064;2023-05-10T05:37:13;15.60;88.90
12164;DHT22;6145;50.192;10.064;2023-05-10T05:39:42;15.60;88.30
12164;DHT22;6145;50.192;10.064;2023-05-10T05:42:10;15.60;88.70
12164;DHT22;6145;50.192;10.064;2023-05-10T05:44:36;15.70;88.90
12164;DHT22;6145;50.192;10.064;2023-05-10T05:47:04;15.60;89.20
12164;DHT22;6145;50.192;10.064;2023-05-10T05:49:31;15.60;89.30
12164;DHT22;6145;50.192;10.064;2023-05-10T05:51:59;15.60;89.30
12164;DHT22;6145;50.192;10.064;2023-05-10T05:54:26;15.60;89.00
12164;DHT22;6145;50.192;10.064;2023-05-10T05:56:55;15.70;89.50
12164;DHT22;6145;50.192;10.064;2023-05-10T05:59:24;15.70;89.80
12164;DHT22;6145;50.192;10.064;2023-05-10T06:01:53;15.70;89.30
12164;DHT22;6145;50.192;10.064;2023-05-10T06:04:20;15.70;88.90
12164;DHT22;6145;50.192;10.064;2023-05-10T06:06:47;15.80;88.90
12164;DHT22;6145;50.192;10.064;2023-05-10T06:09:14;15.80;88.90
12164;DHT22;6145;50.192;10.064;2023-05-10T06:11:41;15.90;89.20
12164;DHT22;6145;50.192;10.064;2023-05-10T06:14:10;15.80;89.00
12164;DHT22;6145;50.192;10.064;2023-05-10T06:16:37;15.80;88.90
12164;DHT22;6145;50.192;10.064;2023-05-10T06:19:04;15.80;88.90
12164;DHT22;6145;50.192;10.064;2023-05-10T06:21:31;15.80;89.10
12164;DHT22;6145;50.192;10.064;2023-05-10T06:23:58;15.80;89.00
12164;DHT22;6145;50.192;10.064;2023-05-10T06:26:25;15.80;89.00
12164;DHT22;6145;50.192;10.064;2023-05-10T06:28:54;15.80;89.00
12164;DHT22;6145;50.192;10.064;2023-05-10T06:31:22;15.90;89.00
12164;DHT22;6145;50.192;10.064;2023-05-10T06:33:49;15.90;89.00
12164;DHT22;6145;50.192;10.064;2023-05-10T06:36:16;15.90;88.80
12164;DHT22;6145;50.192;10.064;2023-05-10T06:38:43;16.00;88.30
12164;DHT22;6145;50.192;10.064;2023-05-10T06:41:10;16.90;88.90
12164;DHT22;6145;50.192;10.064;2023-05-10T06:43:37;16.40;88.80
12164;DHT22;6145;50.192;10.064;2023-05-10T06:46:05;16.20;88.30
12164;DHT22;6145;50.192;10.064;2023-05-10T06:48:36;16.20;88.40
12164;DHT22;6145;50.192;10.064;2023-05-10T06:51:03;16.20;87.80
12164;DHT22;6145;50.192;10.064;2023-05-10T06:53:31;16.20;88.10
12164;DHT22;6145;50.192;10.064;2023-05-10T06:55:58;16.20;88.00
12164;DHT22;6145;50.192;10.064;2023-05-10T06:58:25;16.30;88.10
12164;DHT22;6145;50.192;10.064;2023-05-10T07:00:51;16.30;88.20
12164;DHT22;6145;50.192;10.064;2023-05-10T07:03:18;16.30;87.90
12164;DHT22;6145;50.192;10.064;2023-05-10T07:05:46;16.40;87.70
12164;DHT22;6145;50.192;10.064;2023-05-10T07:08:13;16.40;87.80
12164;DHT22;6145;50.192;10.064;2023-05-10T07:10:40;16.50;87.10
12164;DHT22;6145;50.192;10.064;2023-05-10T07:13:08;16.60;87.40
12164;DHT22;6145;50.192;10.064;2023-05-10T07:15:36;16.60;86.80
12164;DHT22;6145;50.192;10.064;2023-05-10T07:18:02;16.60;86.30
12164;DHT22;6145;50.192;10.064;2023-05-10T07:20:31;16.60;86.30
12164;DHT22;6145;50.192;10.064;2023-05-10T07:22:59;16.60;85.80
12164;DHT22;6145;50.192;10.064;2023-05-10T07:25:26;16.70;86.10
12164;DHT22;6145;50.192;10.064;2023-05-10T07:27:53;16.80;86.10
12164;DHT22;6145;50.192;10.064;2023-05-10T07:30:20;16.70;85.70
12164;DHT22;6145;50.192;10.064;2023-05-10T07:32:47;16.70;85.30
12164;DHT22;6145;50.192;10.064;2023-05-10T07:35:14;16.60;85.30
12164;DHT22;6145;50.192;10.064;2023-05-10T07:37:44;16.50;85.60
12164;DHT22;6145;50.192;10.064;2023-05-10T07:40:12;16.40;86.10
12164;DHT22;6145;50.192;10.064;2023-05-10T07:42:39;16.40;86.70
12164;DHT22;6145;50.192;10.064;2023-05-10T07:45:07;16.40;86.80
12164;DHT22;6145;50.192;10.064;2023-05-10T07:47:35;16.40;86.90
12164;DHT22;6145;50.192;10.064;2023-05-10T07:50:02;16.30;87.20
12164;DHT22;6145;50.192;10.064;2023-05-10T07:52:29;16.30;87.90
12164;DHT22;6145;50.192;10.064;2023-05-10T07:54:56;16.30;88.50
12164;DHT22;6145;50.192;10.064;2023-05-10T07:57:25;16.30;88.90
12164;DHT22;6145;50.192;10.064;2023-05-10T07:59:51;16.30;89.20
12164;DHT22;6145;50.192;10.064;2023-05-10T08:02:18;16.30;89.20
12164;DHT22;6145;50.192;10.064;2023-05-10T08:04:45;16.30;88.80
12164;DHT22;6145;50.192;10.064;2023-05-10T08:07:12;16.40;88.00
12164;DHT22;6145;50.192;10.064;2023-05-10T08:09:39;16.30;88.00
12164;DHT22;6145;50.192;10.064;2023-05-10T08:12:09;16.30;88.10
12164;DHT22;6145;50.192;10.064;2023-05-10T08:14:37;16.20;88.40
12164;DHT22;6145;50.192;10.064;2023-05-10T08:17:04;16.30;88.60
12164;DHT22;6145;50.192;10.064;2023-05-10T08:19:31;16.30;87.90
12164;DHT22;6145;50.192;10.064;2023-05-10T08:21:58;16.30;87.90
12164;DHT22;6145;50.192;10.064;2023-05-10T08:24:25;16.30;88.00
12164;DHT22;6145;50.192;10.064;2023-05-10T08:26:52;16.40;87.90
12164;DHT22;6145;50.192;10.064;2023-05-10T08:29:19;16.40;87.90
12164;DHT22;6145;50.192;10.064;2023-05-10T08:31:49;16.30;87.50
12164;DHT22;6145;50.192;10.064;2023-05-10T08:34:16;16.50;88.00
12164;DHT22;6145;50.192;10.064;2023-05-10T08:36:43;16.60;88.10
12164;DHT22;6145;50.192;10.064;2023-05-10T08:39:10;16.50;88.40
12164;DHT22;6145;50.192;10.064;2023-05-10T08:41:39;16.50;88.30
12164;DHT22;6145;50.192;10.064;2023-05-10T08:44:10;16.50;87.80
12164;DHT22;6145;50.192;10.064;2023-05-10T08:46:37;16.40;87.60
12164;DHT22;6145;50.192;10.064;2023-05-10T08:49:13;16.50;87.80
12164;DHT22;6145;50.192;10.064;2023-05-10T08:51:49;16.60;88.10
12164;DHT22;6145;50.192;10.064;2023-05-10T08:54:16;16.50;88.40
12164;DHT22;6145;50.192;10.064;2023-05-10T08:56:43;16.40;88.10
12164;DHT22;6145;50.192;10.064;2023-05-10T08:59:11;16.50;89.00
12164;DHT22;6145;50.192;10.064;2023-05-10T09:01:40;16.50;89.20
12164;DHT22;6145;50.192;10.064;2023-05-10T09:04:09;16.50;89.10
12164;DHT22;6145;50.192;10.064;2023-05-10T09:06:38;16.50;88.60
12164;DHT22;6145;50.192;10.064;2023-05-10T09:09:05;16.60;88.90
12164;DHT22;6145;50.192;10.064;2023-05-10T09:11:33;16.50;89.00
12164;DHT22;6145;50.192;10.064;2023-05-10T09:14:01;16.60;88.70
12164;DHT22;6145;50.192;10.064;2023-05-10T09:16:28;16.60;88.30
12164;DHT22;6145;50.192;10.064;2023-05-10T09:18:55;16.60;88.30
12164;DHT22;6145;50.192;10.064;2023-05-10T09:21:22;16.60;89.00
12164;DHT22;6145;50.192;10.064;2023-05-10T09:23:51;16.50;89.50
12164;DHT22;6145;50.192;10.064;2023-05-10T09:26:22;16.80;89.60
12164;DHT22;6145;50.192;10.064;2023-05-10T09:28:53;16.60;88.90
12164;DHT22;6145;50.192;10.064;2023-05-10T09:31:20;16.70;89.70
12164;DHT22;6145;50.192;10.064;2023-05-10T09:33:51;16.80;89.20
12164;DHT22;6145;50.192;10.064;2023-05-10T09:36:17;16.70;88.70
12164;DHT22;6145;50.192;10.064;2023-05-10T09:38:48;16.70;88.40
12164;DHT22;6145;50.192;10.064;2023-05-10T09:41:21;16.80;87.90
12164;DHT22;6145;50.192;10.064;2023-05-10T09:43:49;16.80;88.00
12164;DHT22;6145;50.192;10.064;2023-05-10T09:46:16;16.70;88.90
12164;DHT22;6145;50.192;10.064;2023-05-10T09:48:44;17.00;89.30
12164;DHT22;6145;50.192;10.064;2023-05-10T09:51:18;17.00;88.80
12164;DHT22;6145;50.192;10.064;2023-05-10T09:53:45;17.30;87.90
12164;DHT22;6145;50.192;10.064;2023-05-10T09:56:12;17.40;87.40
12164;DHT22;6145;50.192;10.064;2023-05-10T09:58:41;17.60;86.70
12164;DHT22;6145;50.192;10.064;2023-05-10T10:01:11;17.70;85.80
12164;DHT22;6145;50.192;10.064;2023-05-10T10:03:42;17.80;84.50
12164;DHT22;6145;50.192;10.064;2023-05-10T10:06:11;17.80;83.70
12164;DHT22;6145;50.192;10.064;2023-05-10T10:08:46;17.90;83.10
12164;DHT22;6145;50.192;10.064;2023-05-10T10:11:13;17.90;82.60
12164;DHT22;6145;50.192;10.064;2023-05-10T10:13:41;18.40;83.10
12164;DHT22;6145;50.192;10.064;2023-05-10T10:16:09;17.80;82.50
12164;DHT22;6145;50.192;10.064;2023-05-10T10:18:36;17.90;82.40
12164;DHT22;6145;50.192;10.064;2023-05-10T10:21:04;17.90;82.10
12164;DHT22;6145;50.192;10.064;2023-05-10T10:23:32;17.90;82.20
12164;DHT22;6145;50.192;10.064;2023-05-10T10:25:59;17.90;82.30
12164;DHT22;6145;50.192;10.064;2023-05-10T10:28:34;17.90;82.30
12164;DHT22;6145;50.192;10.064;2023-05-10T10:31:17;17.80;82.40
12164;DHT22;6145;50.192;10.064;2023-05-10T10:33:59;17.90;82.50
12164;DHT22;6145;50.192;10.064;2023-05-10T10:36:27;17.90;82.60
12164;DHT22;6145;50.192;10.064;2023-05-10T10:38:58;17.90;82.90
12164;DHT22;6145;50.192;10.064;2023-05-10T10:41:33;17.90;82.80
12164;DHT22;6145;50.192;10.064;2023-05-10T10:44:22;18.00;82.80
12164;DHT22;6145;50.192;10.064;2023-05-10T10:47:01;18.10;82.20
12164;DHT22;6145;50.192;10.064;2023-05-10T10:49:31;18.10;81.90
12164;DHT22;6145;50.192;10.064;2023-05-10T10:52:22;18.10;82.00
12164;DHT22;6145;50.192;10.064;2023-05-10T10:54:53;18.20;82.20
12164;DHT22;6145;50.192;10.064;2023-05-10T10:57:21;18.30;82.20
12164;DHT22;6145;50.192;10.064;2023-05-10T11:00:20;18.50;82.20
12164;DHT22;6145;50.192;10.064;2023-05-10T11:02:50;18.60;81.00
12164;DHT22;6145;50.192;10.064;2023-05-10T11:05:42;18.60;81.10
12164;DHT22;6145;50.192;10.064;2023-05-10T11:08:11;18.80;80.60
12164;DHT22;6145;50.192;10.064;2023-05-10T11:10:39;18.80;79.10
12164;DHT22;6145;50.192;10.064;2023-05-10T11:13:08;18.90;78.90
12164;DHT22;6145;50.192;10.064;2023-05-10T11:15:36;18.90;78.00
12164;DHT22;6145;50.192;10.064;2023-05-10T11:18:20;19.00;79.20
12164;DHT22;6145;50.192;10.064;2023-05-10T11:20:50;19.20;78.50
12164;DHT22;6145;50.192;10.064;2023-05-10T11:23:18;19.30;78.40
12164;DHT22;6145;50.192;10.064;2023-05-10T11:25:48;19.50;78.30
12164;DHT22;6145;50.192;10.064;2023-05-10T11:28:17;19.70;78.80
12164;DHT22;6145;50.192;10.064;2023-05-10T11:30:44;19.90;77.30
12164;DHT22;6145;50.192;10.064;2023-05-10T11:33:16;20.00;78.00
12164;DHT22;6145;50.192;10.064;2023-05-10T11:35:45;20.20;77.50
12164;DHT22;6145;50.192;10.064;2023-05-10T11:38:13;20.30;77.90
12164;DHT22;6145;50.192;10.064;2023-05-10T11:40:40;20.30;76.20
12164;DHT22;6145;50.192;10.064;2023-05-10T11:43:09;20.50;76.60
12164;DHT22;6145;50.192;10.064;2023-05-10T11:45:37;20.60;76.20
12164;DHT22;6145;50.192;10.064;2023-05-10T11:48:05;20.70;74.40
12164;DHT22;6145;50.192;10.064;2023-05-10T11:50:32;20.70;75.20
12164;DHT22;6145;50.192;10.064;2023-05-10T11:53:01;20.80;74.30
12164;DHT22;6145;50.192;10.064;2023-05-10T11:55:28;20.80;73.40
12164;DHT22;6145;50.192;10.064;2023-05-10T11:58:00;20.80;73.70
12164;DHT22;6145;50.192;10.064;2023-05-10T12:00:28;20.90;72.20
12164;DHT22;6145;50.192;10.064;2023-05-10T12:02:55;21.00;71.70
12164;DHT22;6145;50.192;10.064;2023-05-10T12:05:23;21.00;70.50
12164;DHT22;6145;50.192;10.064;2023-05-10T12:07:50;20.90;69.90
12164;DHT22;6145;50.192;10.064;2023-05-10T12:10:25;21.00;70.40
12164;DHT22;6145;50.192;10.064;2023-05-10T12:12:52;21.10;71.20
12164;DHT22;6145;50.192;10.064;2023-05-10T12:15:20;21.10;69.60
12164;DHT22;6145;50.192;10.064;2023-05-10T12:17:48;21.20;70.90
12164;DHT22;6145;50.192;10.064;2023-05-10T12:20:16;21.30;71.00
12164;DHT22;6145;50.192;10.064;2023-05-10T12:22:48;21.40;71.10
12164;DHT22;6145;50.192;10.064;2023-05-10T12:25:16;21.50;71.30
12164;DHT22;6145;50.192;10.064;2023-05-10T12:27:50;21.60;69.50
12164;DHT22;6145;50.192;10.064;2023-05-10T12:30:23;21.70;70.00
12164;DHT22;6145;50.192;10.064;2023-05-10T12:32:50;21.70;67.70
12164;DHT22;6145;50.192;10.064;2023-05-10T12:35:18;21.70;67.30
12164;DHT22;6145;50.192;10.064;2023-05-10T12:37:47;21.80;66.60
12164;DHT22;6145;50.192;10.064;2023-05-10T12:40:14;21.70;66.70
12164;DHT22;6145;50.192;10.064;2023-05-10T12:42:44;21.80;66.80
12164;DHT22;6145;50.192;10.064;2023-05-10T12:45:13;21.90;67.30
12164;DHT22;6145;50.192;10.064;2023-05-10T12:47:40;21.90;67.50
12164;DHT22;6145;50.192;10.064;2023-05-10T12:50:08;22.00;66.30
12164;DHT22;6145;50.192;10.064;2023-05-10T12:52:35;21.90;65.70
12164;DHT22;6145;50.192;10.064;2023-05-10T12:55:02;21.90;66.50
12164;DHT22;6145;50.192;10.064;2023-05-10T12:57:33;21.90;67.00
12164;DHT22;6145;50.192;10.064;2023-05-10T13:00:00;21.90;66.80
12164;DHT22;6145;50.192;10.064;2023-05-10T13:02:28;21.80;65.40
12164;DHT22;6145;50.192;10.064;2023-05-10T13:04:55;21.80;65.60
12164;DHT22;6145;50.192;10.064;2023-05-10T13:07:23;21.70;65.40
12164;DHT22;6145;50.192;10.064;2023-05-10T13:09:49;21.70;64.80
12164;DHT22;6145;50.192;10.064;2023-05-10T13:12:19;21.90;64.40
12164;DHT22;6145;50.192;10.064;2023-05-10T13:14:47;21.50;64.40
12164;DHT22;6145;50.192;10.064;2023-05-10T13:17:14;21.30;64.50
12164;DHT22;6145;50.192;10.064;2023-05-10T13:19:42;21.20;65.10
12164;DHT22;6145;50.192;10.064;2023-05-10T13:22:09;21.30;65.70
12164;DHT22;6145;50.192;10.064;2023-05-10T13:24:36;21.00;65.70
12164;DHT22;6145;50.192;10.064;2023-05-10T13:27:03;21.00;65.60
12164;DHT22;6145;50.192;10.064;2023-05-10T13:29:34;21.00;66.10
12164;DHT22;6145;50.192;10.064;2023-05-10T13:32:00;20.70;66.10
12164;DHT22;6145;50.192;10.064;2023-05-10T13:34:27;20.60;66.50
12164;DHT22;6145;50.192;10.064;2023-05-10T13:36:56;20.50;66.60
12164;DHT22;6145;50.192;10.064;2023-05-10T13:39:23;20.50;66.90
12164;DHT22;6145;50.192;10.064;2023-05-10T13:41:53;20.50;66.80
12164;DHT22;6145;50.192;10.064;2023-05-10T13:44:20;20.30;66.90
12164;DHT22;6145;50.192;10.064;2023-05-10T13:46:47;20.30;67.10
12164;DHT22;6145;50.192;10.064;2023-05-10T13:49:14;20.20;66.70
12164;DHT22;6145;50.192;10.064;2023-05-10T13:51:41;20.00;67.00
12164;DHT22;6145;50.192;10.064;2023-05-10T13:54:10;20.10;67.80
12164;DHT22;6145;50.192;10.064;2023-05-10T13:56:37;19.90;68.30
12164;DHT22;6145;50.192;10.064;2023-05-10T13:59:05;20.50;69.30
12164;DHT22;6145;50.192;10.064;2023-05-10T14:01:33;19.80;69.10
12164;DHT22;6145;50.192;10.064;2023-05-10T14:04:17;20.00;69.80
12164;DHT22;6145;50.192;10.064;2023-05-10T14:06:45;19.70;70.10
12164;DHT22;6145;50.192;10.064;2023-05-10T14:09:13;19.70;70.70
12164;DHT22;6145;50.192;10.064;2023-05-10T14:11:40;19.60;71.10
12164;DHT22;6145;50.192;10.064;2023-05-10T14:14:08;19.60;71.20
12164;DHT22;6145;50.192;10.064;2023-05-10T14:16:35;19.60;72.10
12164;DHT22;6145;50.192;10.064;2023-05-10T14:19:02;19.50;72.10
12164;DHT22;6145;50.192;10.064;2023-05-10T14:21:29;19.50;73.00
12164;DHT22;6145;50.192;10.064;2023-05-10T14:23:56;19.50;73.00
12164;DHT22;6145;50.192;10.064;2023-05-10T14:26:24;19.50;73.20
12164;DHT22;6145;50.192;10.064;2023-05-10T14:28:51;19.50;73.10
12164;DHT22;6145;50.192;10.064;2023-05-10T14:31:18;19.50;73.20
12164;DHT22;6145;50.192;10.064;2023-05-10T14:33:46;19.60;73.50
12164;DHT22;6145;50.192;10.064;2023-05-10T14:36:13;19.50;73.70
12164;DHT22;6145;50.192;10.064;2023-05-10T14:38:40;19.40;73.90
12164;DHT22;6145;50.192;10.064;2023-05-10T14:41:07;20.10;74.90
12164;DHT22;6145;50.192;10.064;2023-05-10T14:43:35;19.40;73.70
12164;DHT22;6145;50.192;10.064;2023-05-10T14:46:02;19.40;73.40
12164;DHT22;6145;50.192;10.064;2023-05-10T14:48:30;19.50;73.30
12164;DHT22;6145;50.192;10.064;2023-05-10T14:50:57;19.40;73.10
12164;DHT22;6145;50.192;10.064;2023-05-10T14:53:24;19.40;73.30
12164;DHT22;6145;50.192;10.064;2023-05-10T14:55:51;19.40;73.20
12164;DHT22;6145;50.192;10.064;2023-05-10T14:58:18;19.60;73.10
12164;DHT22;6145;50.192;10.064;2023-05-10T15:00:46;19.50;72.90
12164;DHT22;6145;50.192;10.064;2023-05-10T15:03:13;19.40;72.80
12164;DHT22;6145;50.192;10.064;2023-05-10T15:05:40;20.20;73.00
12164;DHT22;6145;50.192;10.064;2023-05-10T15:08:07;19.40;72.10
12164;DHT22;6145;50.192;10.064;2023-05-10T15:10:35;19.40;72.20
12164;DHT22;6145;50.192;10.064;2023-05-10T15:13:03;19.40;71.90
12164;DHT22;6145;50.192;10.064;2023-05-10T15:15:37;20.60;72.70
12164;DHT22;6145;50.192;10.064;2023-05-10T15:18:05;19.40;71.50
12164;DHT22;6145;50.192;10.064;2023-05-10T15:20:32;19.40;71.70
12164;DHT22;6145;50.192;10.064;2023-05-10T15:23:00;19.40;72.00
12164;DHT22;6145;50.192;10.064;2023-05-10T15:25:27;19.40;71.60
12164;DHT22;6145;50.192;10.064;2023-05-10T15:27:54;19.40;72.00
12164;DHT22;6145;50.192;10.064;2023-05-10T15:30:21;19.50;72.20
12164;DHT22;6145;50.192;10.064;2023-05-10T15:32:54;19.60;72.10
12164;DHT22;6145;50.192;10.064;2023-05-10T15:35:23;19.60;72.00
12164;DHT22;6145;50.192;10.064;2023-05-10T15:37:50;19.70;71.70
12164;DHT22;6145;50.192;10.064;2023-05-10T15:40:17;19.70;71.70
12164;DHT22;6145;50.192;10.064;2023-05-10T15:42:45;19.70;71.70